Time;durP1;ratioP1;P1;durP2;ratioP2;P2;SDS_P1;SDS_P2;PMS_P1;PMS_P2;Temp;Humidity;BMP_temperature;BMP_pressure;BME280_temperature;BME280_humidity;BME280_pressure;Samples;Min_cycle;Max_cycle;Signal;HPM_P1;HPM_P2
2021/03/02 00:01:51;;;;;;;21.37;11.27;;;;;;;;;;5012645;28;20604;-88
2021/03/02 00:04:56;;;;;;;17.70;10.50;;;;;;;;;;5006679;28;20552;-85
2021/03/02 00:08:00;;;;;;;19.27;10.83;;;;;;;;;;5005159;28;20608;-85
2021/03/02 00:11:05;;;;;;;18.67;11.27;;;;;;;;;;4998336;28;20633;-85
2021/03/02 00:14:10;;;;;;;16.70;10.40;;;;;;;;;;4986101;28;20632;-85
2021/03/02 00:17:31;;;;;;;17.83;10.67;;;;;;;;;;4997414;28;21135;-85
2021/03/02 00:20:37;;;;;;;19.27;11.17;;;;;;;;;;4997772;28;20601;-85
2021/03/02 00:23:49;;;;;;;20.67;11.37;;;;;;;;;;5002950;28;20636;-85
2021/03/02 00:26:56;;;;;;;17.37;11.20;;;;;;;;;;4998482;28;20620;-85
2021/03/02 00:30:02;;;;;;;19.90;10.87;;;;;;;;;;5003751;28;20557;-85
2021/03/02 00:33:09;;;;;;;18.13;11.17;;;;;;;;;;5003147;28;20620;-85
2021/03/02 00:36:13;;;;;;;19.83;11.40;;;;;;;;;;5015013;28;20549;-85
2021/03/02 00:39:17;;;;;;;21.33;11.43;;;;;;;;;;5005107;28;20545;-85
2021/03/02 00:42:22;;;;;;;19.17;11.37;;;;;;;;;;5011319;28;20664;-85
2021/03/02 00:45:26;;;;;;;18.00;11.33;;;;;;;;;;4998360;28;20545;-85
2021/03/02 00:48:30;;;;;;;19.90;11.97;;;;;;;;;;4989608;28;20609;-85
2021/03/02 00:51:35;;;;;;;19.07;11.13;;;;;;;;;;5011282;28;20588;-85
2021/03/02 00:54:39;;;;;;;22.63;11.53;;;;;;;;;;5019272;28;20568;-85
2021/03/02 00:57:43;;;;;;;17.70;11.07;;;;;;;;;;5018801;28;20540;-85
2021/03/02 01:00:52;;;;;;;20.13;11.23;;;;;;;;;;5006500;28;21210;-85
2021/03/02 01:03:57;;;;;;;21.90;11.50;;;;;;;;;;5005799;28;20640;-85
2021/03/02 01:07:03;;;;;;;20.10;11.77;;;;;;;;;;5006869;28;20548;-85
2021/03/02 01:10:10;;;;;;;18.43;11.07;;;;;;;;;;5007767;28;20541;-85
2021/03/02 01:13:15;;;;;;;18.30;11.70;;;;;;;;;;5018092;28;21197;-86
2021/03/02 01:16:19;;;;;;;21.63;11.30;;;;;;;;;;5007616;28;20540;-85
2021/03/02 01:19:24;;;;;;;17.87;11.27;;;;;;;;;;5006871;28;20549;-85
2021/03/02 01:22:28;;;;;;;20.60;11.90;;;;;;;;;;5006981;28;20655;-85
2021/03/02 01:25:32;;;;;;;18.73;11.23;;;;;;;;;;4980107;28;20594;-85
2021/03/02 01:28:37;;;;;;;21.90;12.57;;;;;;;;;;4971015;28;20546;-85
2021/03/02 01:31:41;;;;;;;21.90;12.43;;;;;;;;;;4969908;28;20555;-86
2021/03/02 01:34:45;;;;;;;20.40;11.40;;;;;;;;;;4980431;28;20551;-85
2021/03/02 01:37:50;;;;;;;23.23;11.10;;;;;;;;;;5003042;28;20620;-86
2021/03/02 01:40:55;;;;;;;21.50;12.53;;;;;;;;;;5003401;28;20659;-85
2021/03/02 01:43:59;;;;;;;18.50;10.53;;;;;;;;;;4989216;28;20648;-85
2021/03/02 01:47:03;;;;;;;20.23;11.07;;;;;;;;;;5000463;28;20557;-85
2021/03/02 01:50:09;;;;;;;19.17;11.03;;;;;;;;;;4988748;28;20542;-85
2021/03/02 01:53:13;;;;;;;19.47;10.60;;;;;;;;;;4989249;28;20633;-85
2021/03/02 01:56:18;;;;;;;18.50;10.83;;;;;;;;;;4969506;28;20543;-85
2021/03/02 01:59:23;;;;;;;19.27;10.97;;;;;;;;;;4998843;28;20600;-85
2021/03/02 02:02:34;;;;;;;17.47;10.97;;;;;;;;;;4992056;28;20636;-86
2021/03/02 02:05:46;;;;;;;16.83;10.57;;;;;;;;;;5000974;28;20550;-85
2021/03/02 02:09:21;;;;;;;18.73;10.63;;;;;;;;;;4993158;28;20562;-85
2021/03/02 02:12:47;;;;;;;19.37;10.77;;;;;;;;;;5017206;28;20655;-85
2021/03/02 02:15:56;;;;;;;15.87;10.10;;;;;;;;;;5010084;28;20561;-86
2021/03/02 02:19:03;;;;;;;19.00;10.23;;;;;;;;;;4991404;28;20585;-85
2021/03/02 02:22:13;;;;;;;20.13;11.30;;;;;;;;;;5009856;28;20533;-86
2021/03/02 02:25:23;;;;;;;18.87;10.03;;;;;;;;;;5002031;28;20605;-85
2021/03/02 02:28:29;;;;;;;19.03;10.20;;;;;;;;;;5001607;28;20627;-86
2021/03/02 02:31:34;;;;;;;22.63;10.97;;;;;;;;;;4980976;28;20530;-85
2021/03/02 02:34:40;;;;;;;17.43;10.47;;;;;;;;;;4969910;28;20555;-85
2021/03/02 02:37:47;;;;;;;17.47;10.23;;;;;;;;;;4991708;28;20563;-85
2021/03/02 02:40:53;;;;;;;20.07;10.50;;;;;;;;;;4980135;28;20602;-85
2021/03/02 02:43:58;;;;;;;17.40;10.23;;;;;;;;;;4980774;28;20649;-85
2021/03/02 02:47:03;;;;;;;19.40;10.67;;;;;;;;;;4970682;28;20531;-86
2021/03/02 02:50:09;;;;;;;20.17;10.63;;;;;;;;;;5019165;28;20546;-85
2021/03/02 02:53:15;;;;;;;18.50;10.70;;;;;;;;;;5019526;28;20628;-86
2021/03/02 02:56:20;;;;;;;22.00;11.33;;;;;;;;;;5000994;28;20542;-86
2021/03/02 02:59:29;;;;;;;15.23;10.30;;;;;;;;;;4989105;28;20542;-85
2021/03/02 03:02:36;;;;;;;19.37;11.00;;;;;;;;;;4988127;28;20617;-85
2021/03/02 03:05:45;;;;;;;20.53;11.27;;;;;;;;;;5006534;28;20596;-85
2021/03/02 03:08:51;;;;;;;18.80;10.30;;;;;;;;;;5007552;28;20596;-85
2021/03/02 03:12:01;;;;;;;18.27;10.30;;;;;;;;;;5007822;28;20537;-86
2021/03/02 03:15:16;;;;;;;17.53;10.53;;;;;;;;;;4976092;28;20622;-85
2021/03/02 03:18:25;;;;;;;16.40;9.23;;;;;;;;;;4980255;28;20546;-85
2021/03/02 03:21:32;;;;;;;20.23;10.17;;;;;;;;;;4992641;28;20657;-85
2021/03/02 03:24:37;;;;;;;16.50;9.70;;;;;;;;;;5018039;28;20926;-85
2021/03/02 03:27:48;;;;;;;18.27;10.73;;;;;;;;;;5007433;28;20545;-85
2021/03/02 03:30:53;;;;;;;16.27;10.37;;;;;;;;;;5005548;28;20601;-85
2021/03/02 03:33:59;;;;;;;16.23;10.03;;;;;;;;;;5002145;28;20652;-85
2021/03/02 03:37:03;;;;;;;19.97;10.57;;;;;;;;;;5003916;28;20600;-85
2021/03/02 03:40:08;;;;;;;18.13;10.23;;;;;;;;;;5005763;28;20552;-85
2021/03/02 03:43:13;;;;;;;19.47;10.37;;;;;;;;;;5002015;28;21206;-88
2021/03/02 03:46:17;;;;;;;19.20;10.63;;;;;;;;;;4991007;28;20544;-88
2021/03/02 03:49:22;;;;;;;19.17;11.53;;;;;;;;;;5002195;28;20550;-88
2021/03/02 03:52:26;;;;;;;20.27;10.57;;;;;;;;;;4990884;28;20627;-88
2021/03/02 03:55:35;;;;;;;18.60;10.80;;;;;;;;;;4990736;28;20560;-88
2021/03/02 03:58:41;;;;;;;17.73;11.07;;;;;;;;;;5002105;28;20565;-88
2021/03/02 04:01:46;;;;;;;21.20;11.63;;;;;;;;;;4990907;28;20588;-88
2021/03/02 04:04:50;;;;;;;17.67;10.13;;;;;;;;;;5001948;28;20545;-88
2021/03/02 04:07:55;;;;;;;20.37;11.07;;;;;;;;;;5001650;28;20556;-88
2021/03/02 04:10:59;;;;;;;17.27;10.70;;;;;;;;;;4963177;28;20535;-88
2021/03/02 04:14:04;;;;;;;18.43;10.20;;;;;;;;;;4974111;28;20630;-88
2021/03/02 04:17:11;;;;;;;22.43;10.80;;;;;;;;;;4963084;28;20562;-88
2021/03/02 04:20:16;;;;;;;18.27;9.70;;;;;;;;;;4966043;28;20566;-87
2021/03/02 04:23:20;;;;;;;18.73;10.93;;;;;;;;;;4977836;28;20622;-88
2021/03/02 04:26:24;;;;;;;18.37;10.60;;;;;;;;;;4966944;28;20551;-88
2021/03/02 04:29:28;;;;;;;21.53;11.33;;;;;;;;;;4966715;28;20570;-88
2021/03/02 04:32:34;;;;;;;20.77;10.43;;;;;;;;;;4955668;28;20626;-88
2021/03/02 04:35:38;;;;;;;19.63;11.10;;;;;;;;;;4955501;28;20562;-88
2021/03/02 04:38:43;;;;;;;17.57;10.37;;;;;;;;;;4977608;28;21092;-88
2021/03/02 04:41:46;;;;;;;22.63;11.20;;;;;;;;;;4977345;28;20994;-88
2021/03/02 04:44:51;;;;;;;18.57;10.40;;;;;;;;;;4966270;28;20570;-88
2021/03/02 04:47:55;;;;;;;16.97;9.80;;;;;;;;;;4966595;28;20539;-88
2021/03/02 04:50:59;;;;;;;21.30;11.13;;;;;;;;;;4977640;28;20876;-88
2021/03/02 04:54:04;;;;;;;19.23;10.40;;;;;;;;;;4966324;28;20629;-88
2021/03/02 04:57:08;;;;;;;24.03;11.87;;;;;;;;;;4966613;28;20542;-88
2021/03/02 05:00:12;;;;;;;23.30;11.17;;;;;;;;;;4966332;28;20562;-87
2021/03/02 05:03:17;;;;;;;18.40;9.83;;;;;;;;;;4986772;28;20640;-87
2021/03/02 05:06:21;;;;;;;23.60;12.27;;;;;;;;;;5005146;28;20881;-87
2021/03/02 05:09:25;;;;;;;19.97;10.97;;;;;;;;;;5004842;28;20600;-87
2021/03/02 05:12:29;;;;;;;19.90;11.23;;;;;;;;;;4968882;28;20645;-88
2021/03/02 05:15:33;;;;;;;21.40;11.63;;;;;;;;;;4966195;28;20598;-88
2021/03/02 05:18:38;;;;;;;19.67;11.37;;;;;;;;;;4966145;28;20557;-88
2021/03/02 05:21:42;;;;;;;21.10;10.83;;;;;;;;;;4976897;28;20617;-88
2021/03/02 05:24:52;;;;;;;20.10;11.47;;;;;;;;;;4976864;28;20569;-90
2021/03/02 05:27:57;;;;;;;22.13;11.30;;;;;;;;;;4985336;28;20607;-92
2021/03/02 05:31:01;;;;;;;22.37;11.77;;;;;;;;;;4992911;28;20560;-90
2021/03/02 05:34:05;;;;;;;23.00;12.03;;;;;;;;;;5004707;28;20638;-91
2021/03/02 05:37:09;;;;;;;24.80;12.07;;;;;;;;;;4993598;28;20687;-91
2021/03/02 05:40:44;;;;;;;21.47;11.33;;;;;;;;;;4993074;28;20611;-91
2021/03/02 05:43:49;;;;;;;25.83;12.80;;;;;;;;;;5004218;28;20634;-91
2021/03/02 05:46:54;;;;;;;22.87;12.40;;;;;;;;;;4993406;28;20564;-91
2021/03/02 05:49:58;;;;;;;22.17;11.37;;;;;;;;;;4993255;28;20560;-89
2021/03/02 05:53:02;;;;;;;21.50;12.43;;;;;;;;;;5004066;28;20627;-90
2021/03/02 05:56:08;;;;;;;21.17;11.77;;;;;;;;;;4993127;28;20556;-91
2021/03/02 05:59:12;;;;;;;23.27;11.27;;;;;;;;;;5003974;28;20916;-91
2021/03/02 06:02:16;;;;;;;21.40;12.57;;;;;;;;;;4992718;28;20667;-90
2021/03/02 06:05:21;;;;;;;24.60;11.87;;;;;;;;;;4993023;28;20571;-90
2021/03/02 06:08:25;;;;;;;21.10;11.80;;;;;;;;;;4992658;28;20920;-90
2021/03/02 06:11:35;;;;;;;23.57;12.47;;;;;;;;;;4991122;28;20604;-89
2021/03/02 06:14:39;;;;;;;25.13;13.13;;;;;;;;;;4998327;28;20588;-89
2021/03/02 06:17:43;;;;;;;24.63;13.53;;;;;;;;;;4973517;28;20545;-89
2021/03/02 06:20:48;;;;;;;25.33;13.03;;;;;;;;;;4995858;28;20548;-89
2021/03/02 06:23:53;;;;;;;27.43;13.77;;;;;;;;;;4984031;28;21198;-89
2021/03/02 06:27:09;;;;;;;22.93;13.03;;;;;;;;;;4988539;28;20617;-87
2021/03/02 06:30:15;;;;;;;21.23;11.97;;;;;;;;;;4982230;28;20558;-87
2021/03/02 06:33:19;;;;;;;18.60;10.80;;;;;;;;;;4988769;28;20622;-87
2021/03/02 06:36:23;;;;;;;21.63;10.93;;;;;;;;;;4976282;28;20543;-87
2021/03/02 06:39:32;;;;;;;21.97;11.97;;;;;;;;;;4977813;28;20906;-87
2021/03/02 06:42:38;;;;;;;29.30;11.63;;;;;;;;;;4986340;28;20666;-87
2021/03/02 06:45:49;;;;;;;33.83;12.40;;;;;;;;;;4975465;28;20622;-87
2021/03/02 06:48:57;;;;;;;59.67;14.20;;;;;;;;;;4978561;28;20543;-87
2021/03/02 06:52:15;;;;;;;28.80;12.50;;;;;;;;;;4979313;28;20543;-86
2021/03/02 06:55:19;;;;;;;23.47;13.07;;;;;;;;;;4965577;28;20562;-88
2021/03/02 06:58:25;;;;;;;39.87;16.50;;;;;;;;;;4974125;28;20561;-88
2021/03/02 07:01:41;;;;;;;23.90;13.13;;;;;;;;;;4976655;28;20610;-87
2021/03/02 07:04:45;;;;;;;21.47;11.53;;;;;;;;;;4987853;28;20559;-88
2021/03/02 07:07:56;;;;;;;18.20;10.27;;;;;;;;;;4976876;28;20535;-87
2021/03/02 07:11:02;;;;;;;20.57;11.20;;;;;;;;;;4988386;28;20551;-87
2021/03/02 07:14:12;;;;;;;17.00;10.47;;;;;;;;;;4975471;28;21182;-88
2021/03/02 07:17:16;;;;;;;23.00;11.33;;;;;;;;;;4971350;28;20895;-88
2021/03/02 07:20:25;;;;;;;18.10;11.43;;;;;;;;;;4980954;28;20542;-88
2021/03/02 07:23:33;;;;;;;19.90;12.13;;;;;;;;;;4985578;28;20658;-88
2021/03/02 07:26:39;;;;;;;19.70;10.97;;;;;;;;;;4971052;28;20543;-88
2021/03/02 07:29:43;;;;;;;20.23;11.33;;;;;;;;;;4971644;28;20539;-88
2021/03/02 07:32:48;;;;;;;17.40;10.50;;;;;;;;;;4969365;28;20958;-88
2021/03/02 07:35:57;;;;;;;19.23;11.43;;;;;;;;;;4980587;28;20548;-88
2021/03/02 07:39:19;;;;;;;21.60;11.03;;;;;;;;;;4969276;28;20543;-88
2021/03/02 07:42:23;;;;;;;18.63;12.00;;;;;;;;;;4967309;28;20653;-88
2021/03/02 07:45:28;;;;;;;25.80;12.93;;;;;;;;;;4976425;28;20554;-89
2021/03/02 07:48:36;;;;;;;23.77;12.57;;;;;;;;;;4976242;28;20542;-89
2021/03/02 07:51:40;;;;;;;22.40;12.67;;;;;;;;;;4958469;28;20543;-88
2021/03/02 07:54:46;;;;;;;45.43;16.07;;;;;;;;;;4969914;28;20609;-88
2021/03/02 07:58:18;;;;;;;18.83;12.50;;;;;;;;;;4981206;28;20550;-88
2021/03/02 08:01:23;;;;;;;22.33;11.33;;;;;;;;;;4970188;28;20531;-87
2021/03/02 08:04:28;;;;;;;20.53;12.43;;;;;;;;;;4972334;28;20531;-88
2021/03/02 08:07:32;;;;;;;22.27;11.87;;;;;;;;;;4978320;28;20597;-88
2021/03/02 08:10:36;;;;;;;17.57;11.50;;;;;;;;;;4981456;28;20182;-88
2021/03/02 08:13:42;;;;;;;21.27;11.53;;;;;;;;;;4980944;28;20209;-88
2021/03/02 08:17:01;;;;;;;18.87;11.87;;;;;;;;;;4982312;28;20197;-88
2021/03/02 08:20:08;;;;;;;19.80;11.30;;;;;;;;;;4983772;28;20190;-87
2021/03/02 08:23:12;;;;;;;19.37;11.57;;;;;;;;;;4993466;28;20221;-88
2021/03/02 08:26:34;;;;;;;22.07;11.67;;;;;;;;;;4982952;28;20178;-88
2021/03/02 08:29:50;;;;;;;21.17;12.33;;;;;;;;;;4982527;28;20186;-88
2021/03/02 08:32:57;;;;;;;19.30;11.23;;;;;;;;;;4982170;28;20210;-88
2021/03/02 08:36:02;;;;;;;21.83;12.80;;;;;;;;;;4982009;28;20183;-88
2021/03/02 08:39:12;;;;;;;19.50;12.27;;;;;;;;;;4998505;28;20201;-88
2021/03/02 08:42:17;;;;;;;19.50;11.57;;;;;;;;;;5002403;28;20217;-88
2021/03/02 08:45:22;;;;;;;18.50;11.83;;;;;;;;;;5010401;28;20546;-88
2021/03/02 08:48:30;;;;;;;17.07;11.60;;;;;;;;;;4987499;28;20190;-88
2021/03/02 08:51:35;;;;;;;18.53;11.50;;;;;;;;;;5012177;28;20186;-88
2021/03/02 08:54:47;;;;;;;21.77;11.43;;;;;;;;;;4993037;28;20190;-88
2021/03/02 08:57:52;;;;;;;18.93;11.30;;;;;;;;;;4993862;28;20519;-88
2021/03/02 09:01:05;;;;;;;20.40;11.17;;;;;;;;;;4983503;28;20657;-88
2021/03/02 09:04:18;;;;;;;19.10;11.77;;;;;;;;;;4995855;28;20221;-88
2021/03/02 09:07:22;;;;;;;17.10;11.63;;;;;;;;;;5004106;28;20190;-88
2021/03/02 09:10:26;;;;;;;19.87;11.50;;;;;;;;;;4983759;28;20182;-88
2021/03/02 09:13:38;;;;;;;17.33;11.33;;;;;;;;;;4984154;28;20225;-88
2021/03/02 09:16:46;;;;;;;19.17;11.43;;;;;;;;;;4987707;28;20265;-88
2021/03/02 09:19:51;;;;;;;21.03;11.20;;;;;;;;;;4982745;28;20185;-87
2021/03/02 09:22:58;;;;;;;19.57;11.50;;;;;;;;;;4992048;28;20225;-88
2021/03/02 09:26:04;;;;;;;19.50;11.07;;;;;;;;;;5000645;28;20193;-89
2021/03/02 09:29:09;;;;;;;16.93;10.63;;;;;;;;;;5003695;28;20200;-88
2021/03/02 09:32:16;;;;;;;18.73;11.17;;;;;;;;;;5001995;28;20224;-88
2021/03/02 09:35:21;;;;;;;15.53;10.40;;;;;;;;;;5002140;28;20189;-88
2021/03/02 09:38:28;;;;;;;18.10;10.40;;;;;;;;;;4985775;28;20202;-88
2021/03/02 09:41:38;;;;;;;15.87;10.37;;;;;;;;;;5010377;28;20204;-88
2021/03/02 09:44:52;;;;;;;18.97;10.57;;;;;;;;;;5040724;22;20733;-87
2021/03/02 09:47:58;;;;;;;12.57;8.97;;;;;;;;;;5024327;28;20188;-89
2021/03/02 09:51:02;;;;;;;14.70;10.60;;;;;;;;;;5004277;28;20201;-88
2021/03/02 09:54:13;;;;;;;18.43;11.03;;;;;;;;;;5007583;28;20220;-88
2021/03/02 09:57:17;;;;;;;19.10;11.10;;;;;;;;;;5007935;28;20196;-88
2021/03/02 10:00:31;;;;;;;15.53;11.03;;;;;;;;;;5023390;28;20203;-89
2021/03/02 10:03:38;;;;;;;16.17;10.03;;;;;;;;;;5024775;28;20231;-89
2021/03/02 10:06:42;;;;;;;15.63;10.53;;;;;;;;;;5002719;28;20220;-89
2021/03/02 10:09:47;;;;;;;13.63;8.70;;;;;;;;;;4993559;28;20682;-89
2021/03/02 10:13:01;;;;;;;15.20;9.80;;;;;;;;;;5003706;28;20692;-90
2021/03/02 10:16:38;;;;;;;18.33;11.53;;;;;;;;;;5017683;28;20548;-89
2021/03/02 10:19:42;;;;;;;52.13;11.27;;;;;;;;;;5027542;28;20207;-87
2021/03/02 10:22:46;;;;;;;13.10;9.77;;;;;;;;;;5003873;28;20568;-88
2021/03/02 10:25:55;;;;;;;16.97;10.60;;;;;;;;;;5010625;28;20312;-87
2021/03/02 10:29:03;;;;;;;13.40;9.67;;;;;;;;;;4998346;28;20200;-87
2021/03/02 10:32:08;;;;;;;15.33;8.30;;;;;;;;;;5002179;28;20197;-87
2021/03/02 10:35:13;;;;;;;12.70;9.47;;;;;;;;;;4991079;28;20213;-87
2021/03/02 10:38:17;;;;;;;14.70;10.63;;;;;;;;;;5006879;28;20189;-88
2021/03/02 10:41:22;;;;;;;16.60;9.80;;;;;;;;;;5013925;28;20204;-87
2021/03/02 10:44:26;;;;;;;12.97;8.97;;;;;;;;;;5007507;28;20229;-87
2021/03/02 10:47:30;;;;;;;16.67;10.33;;;;;;;;;;4994661;28;20186;-87
2021/03/02 10:50:34;;;;;;;14.83;10.10;;;;;;;;;;5033421;28;20204;-87
2021/03/02 10:53:38;;;;;;;17.37;9.47;;;;;;;;;;5022615;28;20244;-87
2021/03/02 10:56:42;;;;;;;11.93;8.77;;;;;;;;;;4978324;28;20185;-87
2021/03/02 10:59:47;;;;;;;12.10;8.83;;;;;;;;;;5002837;28;20177;-87
2021/03/02 11:02:51;;;;;;;12.13;9.10;;;;;;;;;;5015106;28;20208;-88
2021/03/02 11:05:56;;;;;;;12.77;9.40;;;;;;;;;;5022908;28;20212;-88
2021/03/02 11:09:02;;;;;;;15.20;9.80;;;;;;;;;;4994126;28;20178;-87
2021/03/02 11:12:06;;;;;;;13.23;9.47;;;;;;;;;;5003435;28;20181;-87
2021/03/02 11:15:12;;;;;;;13.63;10.07;;;;;;;;;;4991336;28;20209;-87
2021/03/02 11:18:17;;;;;;;20.33;10.63;;;;;;;;;;5018079;28;20209;-89
2021/03/02 11:21:21;;;;;;;13.03;9.73;;;;;;;;;;4992618;28;20204;-90
2021/03/02 11:24:25;;;;;;;18.80;10.97;;;;;;;;;;5002010;28;20233;-90
2021/03/02 11:27:29;;;;;;;14.20;10.20;;;;;;;;;;5010153;28;20195;-90
2021/03/02 11:30:34;;;;;;;15.57;9.43;;;;;;;;;;5000019;28;20200;-90
2021/03/02 11:33:38;;;;;;;15.33;10.43;;;;;;;;;;4991111;28;20182;-90
2021/03/02 11:36:42;;;;;;;12.50;9.10;;;;;;;;;;4993202;28;20643;-90
2021/03/02 11:39:47;;;;;;;22.23;16.47;;;;;;;;;;5011549;28;20189;-87
2021/03/02 11:42:52;;;;;;;12.43;8.63;;;;;;;;;;4993647;28;20205;-88
2021/03/02 11:45:57;;;;;;;12.13;8.83;;;;;;;;;;5022378;28;20217;-88
2021/03/02 11:49:01;;;;;;;16.20;7.57;;;;;;;;;;5011138;28;20185;-88
2021/03/02 11:52:05;;;;;;;15.13;8.13;;;;;;;;;;5021673;28;20666;-88
2021/03/02 11:55:10;;;;;;;14.73;8.10;;;;;;;;;;4996981;28;20213;-88
2021/03/02 11:58:15;;;;;;;12.00;8.40;;;;;;;;;;4971441;28;20211;-87
2021/03/02 12:01:20;;;;;;;15.67;8.23;;;;;;;;;;5008189;28;20521;-88
2021/03/02 12:04:24;;;;;;;11.27;8.37;;;;;;;;;;5002376;28;20224;-87
2021/03/02 12:11:20;;;;;;;10.17;7.60;;;;;;;;;;4994528;28;20651;-91
2021/03/02 12:14:24;;;;;;;14.27;7.93;;;;;;;;;;5013629;28;20213;-91
2021/03/02 12:17:28;;;;;;;11.03;7.70;;;;;;;;;;4991418;28;20193;-90
2021/03/02 12:20:32;;;;;;;12.17;8.63;;;;;;;;;;4990657;28;20174;-90
2021/03/02 12:23:36;;;;;;;14.03;8.60;;;;;;;;;;4990804;28;20596;-90
2021/03/02 12:26:40;;;;;;;11.30;8.43;;;;;;;;;;4994305;28;20640;-89
2021/03/02 12:29:45;;;;;;;10.80;8.70;;;;;;;;;;5014931;28;20189;-90
2021/03/02 12:32:50;;;;;;;12.27;8.47;;;;;;;;;;4996158;28;20192;-87
2021/03/02 12:35:54;;;;;;;13.17;8.67;;;;;;;;;;5008323;28;20575;-88
2021/03/02 12:38:58;;;;;;;12.27;8.70;;;;;;;;;;4996329;28;20186;-90
2021/03/02 12:42:03;;;;;;;11.40;8.33;;;;;;;;;;5005548;28;20177;-89
2021/03/02 12:45:07;;;;;;;10.63;7.90;;;;;;;;;;5006945;28;20229;-89
2021/03/02 12:48:12;;;;;;;10.57;8.17;;;;;;;;;;4994276;28;20202;-89
2021/03/02 12:51:18;;;;;;;13.63;8.03;;;;;;;;;;5010706;28;20196;-89
2021/03/02 12:54:23;;;;;;;9.03;7.20;;;;;;;;;;5009206;28;20217;-88
2021/03/02 12:57:27;;;;;;;11.40;8.33;;;;;;;;;;5025739;28;20653;-90
2021/03/02 13:00:31;;;;;;;17.83;7.40;;;;;;;;;;5003484;28;20192;-89
2021/03/02 13:03:36;;;;;;;7.97;6.53;;;;;;;;;;5019500;28;20212;-86
2021/03/02 13:06:40;;;;;;;10.43;7.60;;;;;;;;;;5009984;28;20648;-87
2021/03/02 13:09:45;;;;;;;12.40;8.60;;;;;;;;;;4993089;28;20182;-87
2021/03/02 13:12:49;;;;;;;11.10;8.00;;;;;;;;;;5025156;28;20184;-87
2021/03/02 13:15:53;;;;;;;10.87;8.07;;;;;;;;;;5002217;28;20213;-87
2021/03/02 13:19:22;;;;;;;13.63;8.33;;;;;;;;;;5005839;28;20182;-87
2021/03/02 13:22:27;;;;;;;9.67;7.43;;;;;;;;;;4995602;28;20189;-87
2021/03/02 13:25:31;;;;;;;10.77;7.60;;;;;;;;;;5010889;28;20280;-86
2021/03/02 13:28:40;;;;;;;10.00;7.20;;;;;;;;;;5015459;28;20177;-88
2021/03/02 13:31:48;;;;;;;28.00;9.27;;;;;;;;;;5026095;28;20197;-88
2021/03/02 13:34:53;;;;;;;22.60;8.63;;;;;;;;;;5040301;28;20200;-87
2021/03/02 13:38:05;;;;;;;11.80;7.93;;;;;;;;;;5038381;28;20193;-86
2021/03/02 13:41:10;;;;;;;10.90;7.57;;;;;;;;;;5019798;28;20190;-87
2021/03/02 13:44:20;;;;;;;11.13;7.30;;;;;;;;;;4985951;28;20229;-86
2021/03/02 13:47:25;;;;;;;11.20;8.23;;;;;;;;;;4985937;28;20186;-87
2021/03/02 13:50:29;;;;;;;10.40;6.87;;;;;;;;;;5010756;28;20233;-88
2021/03/02 13:53:35;;;;;;;10.50;7.43;;;;;;;;;;5017325;28;20193;-87
2021/03/02 13:56:41;;;;;;;12.70;7.77;;;;;;;;;;5004469;28;20185;-87
2021/03/02 13:59:45;;;;;;;11.00;7.30;;;;;;;;;;5016127;28;20529;-87
2021/03/02 14:02:52;;;;;;;31.87;8.33;;;;;;;;;;5031256;28;20197;-87
2021/03/02 14:05:58;;;;;;;11.10;7.10;;;;;;;;;;5016733;28;20201;-86
2021/03/02 14:09:03;;;;;;;10.90;8.13;;;;;;;;;;4986566;28;20189;-87
2021/03/02 14:12:08;;;;;;;12.33;7.50;;;;;;;;;;5004124;28;20193;-87
2021/03/02 14:15:13;;;;;;;11.73;8.00;;;;;;;;;;5004383;28;20218;-87
2021/03/02 14:18:21;;;;;;;10.73;7.40;;;;;;;;;;5020502;28;20201;-87
2021/03/02 14:21:25;;;;;;;10.13;6.73;;;;;;;;;;5012003;28;20196;-87
2021/03/02 14:24:30;;;;;;;11.10;6.57;;;;;;;;;;5034319;28;20570;-86
2021/03/02 14:27:38;;;;;;;11.20;7.17;;;;;;;;;;5006373;28;20651;-89
2021/03/02 14:30:45;;;;;;;22.87;7.87;;;;;;;;;;5005611;28;20193;-88
2021/03/02 14:33:50;;;;;;;22.70;8.33;;;;;;;;;;5015813;28;20624;-88
2021/03/02 14:36:54;;;;;;;11.83;6.50;;;;;;;;;;4992573;28;20178;-88
2021/03/02 14:39:59;;;;;;;11.23;6.87;;;;;;;;;;4992165;28;20177;-88
2021/03/02 14:43:06;;;;;;;12.27;7.80;;;;;;;;;;4992394;28;20173;-88
2021/03/02 14:46:12;;;;;;;12.53;7.30;;;;;;;;;;5003532;28;20177;-88
2021/03/02 14:49:24;;;;;;;10.73;7.17;;;;;;;;;;5003280;28;20692;-88
2021/03/02 14:52:29;;;;;;;10.30;7.27;;;;;;;;;;5003840;28;20621;-88
2021/03/02 14:55:34;;;;;;;15.13;6.97;;;;;;;;;;4991839;28;20217;-88
2021/03/02 14:58:44;;;;;;;14.70;7.03;;;;;;;;;;4992065;28;20202;-88
2021/03/02 15:01:48;;;;;;;11.20;6.67;;;;;;;;;;5003079;28;20637;-88
2021/03/02 15:04:54;;;;;;;10.70;7.30;;;;;;;;;;5002605;28;20592;-88
2021/03/02 15:08:00;;;;;;;12.93;7.20;;;;;;;;;;5005360;28;20162;-89
2021/03/02 15:11:05;;;;;;;12.40;6.93;;;;;;;;;;4991276;28;20197;-89
2021/03/02 15:14:13;;;;;;;11.27;7.07;;;;;;;;;;4991340;28;20225;-88
2021/03/02 15:17:25;;;;;;;11.50;8.30;;;;;;;;;;4992021;28;20197;-89
2021/03/02 15:20:29;;;;;;;12.43;7.40;;;;;;;;;;4991969;28;20517;-88
2021/03/02 15:23:35;;;;;;;11.10;7.83;;;;;;;;;;5002958;28;20177;-88
2021/03/02 15:26:41;;;;;;;15.13;7.77;;;;;;;;;;4992024;28;20178;-89
2021/03/02 15:29:46;;;;;;;12.53;8.00;;;;;;;;;;5002361;28;20193;-89
2021/03/02 15:32:52;;;;;;;12.90;7.20;;;;;;;;;;4993410;28;20197;-90
2021/03/02 15:35:59;;;;;;;11.70;7.73;;;;;;;;;;4991756;28;20628;-87
2021/03/02 15:39:03;;;;;;;14.37;7.30;;;;;;;;;;5002832;28;20668;-88
2021/03/02 15:42:09;;;;;;;11.50;7.67;;;;;;;;;;4991572;28;20197;-89
2021/03/02 15:45:14;;;;;;;14.40;7.67;;;;;;;;;;5006710;22;20706;-73
2021/03/02 15:48:19;;;;;;;12.00;7.77;;;;;;;;;;5013696;28;20197;-73
2021/03/02 15:51:24;;;;;;;11.53;7.40;;;;;;;;;;4994855;28;20217;-73
2021/03/02 15:54:29;;;;;;;10.23;6.43;;;;;;;;;;4994012;28;20178;-74
2021/03/02 15:57:36;;;;;;;11.67;7.63;;;;;;;;;;4982200;28;20171;-74
2021/03/02 16:00:41;;;;;;;12.30;7.27;;;;;;;;;;4993870;28;20213;-74
2021/03/02 16:03:51;;;;;;;11.77;7.60;;;;;;;;;;4993977;28;20186;-74
2021/03/02 16:07:07;;;;;;;18.57;8.87;;;;;;;;;;4993699;28;20665;-74
2021/03/02 16:10:14;;;;;;;25.90;7.57;;;;;;;;;;4993615;28;20217;-74
2021/03/02 16:13:23;;;;;;;12.67;7.13;;;;;;;;;;4994089;28;20182;-74
2021/03/02 16:16:31;;;;;;;17.90;7.80;;;;;;;;;;5000207;28;20174;-74
2021/03/02 16:19:37;;;;;;;11.40;7.90;;;;;;;;;;4976997;28;20213;-74
2021/03/02 16:22:44;;;;;;;8.83;6.70;;;;;;;;;;5000275;28;20526;-74
2021/03/02 16:25:49;;;;;;;10.80;6.90;;;;;;;;;;4988010;28;20696;-75
2021/03/02 16:28:54;;;;;;;9.73;6.73;;;;;;;;;;4999483;28;20190;-73
2021/03/02 16:32:00;;;;;;;10.27;6.93;;;;;;;;;;4989977;28;20202;-73
2021/03/02 16:35:06;;;;;;;11.07;7.47;;;;;;;;;;4999925;28;20644;-74
2021/03/02 16:38:11;;;;;;;11.40;7.10;;;;;;;;;;4980514;28;20527;-73
2021/03/02 16:41:15;;;;;;;10.37;6.47;;;;;;;;;;4988112;28;20213;-74
2021/03/02 16:44:20;;;;;;;9.53;6.60;;;;;;;;;;4987937;28;20225;-74
2021/03/02 16:47:25;;;;;;;10.07;6.10;;;;;;;;;;4999435;28;20202;-74
2021/03/02 16:50:30;;;;;;;10.83;6.27;;;;;;;;;;4999053;28;20221;-73
2021/03/02 16:53:38;;;;;;;10.60;6.53;;;;;;;;;;4979508;28;20203;-74
2021/03/02 16:56:50;;;;;;;37.73;8.50;;;;;;;;;;4968352;28;20526;-74
2021/03/02 16:59:57;;;;;;;23.33;7.50;;;;;;;;;;4986900;28;20214;-74
2021/03/02 17:03:32;;;;;;;9.87;6.13;;;;;;;;;;4999375;28;20190;-75
2021/03/02 17:06:43;;;;;;;13.13;6.33;;;;;;;;;;4999008;28;20201;-73
2021/03/02 17:09:50;;;;;;;10.17;6.03;;;;;;;;;;4993891;28;20226;-73
2021/03/02 17:12:55;;;;;;;87.17;9.60;;;;;;;;;;4999398;28;20186;-73
2021/03/02 17:15:59;;;;;;;17.53;6.47;;;;;;;;;;4999250;28;20190;-74
2021/03/02 17:19:03;;;;;;;80.83;9.97;;;;;;;;;;4980121;28;20190;-74
2021/03/02 17:22:07;;;;;;;32.70;7.13;;;;;;;;;;4998647;28;20190;-73
2021/03/02 17:25:12;;;;;;;28.47;7.40;;;;;;;;;;4993594;28;20209;-74
2021/03/02 17:28:16;;;;;;;20.93;6.53;;;;;;;;;;4996436;28;20645;-74
2021/03/02 17:31:20;;;;;;;16.60;7.13;;;;;;;;;;4996444;28;20217;-74
2021/03/02 17:34:24;;;;;;;54.53;8.47;;;;;;;;;;4982620;28;20190;-74
2021/03/02 17:37:28;;;;;;;26.03;7.80;;;;;;;;;;4995398;28;20178;-74
2021/03/02 17:40:32;;;;;;;10.17;6.63;;;;;;;;;;4996037;28;20213;-75
2021/03/02 17:43:37;;;;;;;13.37;6.70;;;;;;;;;;4996046;28;20186;-74
2021/03/02 17:46:41;;;;;;;9.67;6.23;;;;;;;;;;4996020;28;20206;-74
2021/03/02 17:49:45;;;;;;;13.70;6.70;;;;;;;;;;4983789;28;20221;-74
2021/03/02 17:52:49;;;;;;;10.77;6.03;;;;;;;;;;4995764;28;20198;-74
2021/03/02 17:55:53;;;;;;;10.53;6.67;;;;;;;;;;4995238;28;20186;-74
2021/03/02 17:58:57;;;;;;;11.53;6.50;;;;;;;;;;4995296;28;20178;-74
2021/03/02 18:02:03;;;;;;;11.90;7.07;;;;;;;;;;4995820;28;20194;-74
2021/03/02 18:05:08;;;;;;;12.13;7.10;;;;;;;;;;4983915;28;20217;-75
2021/03/02 18:08:12;;;;;;;9.80;6.60;;;;;;;;;;4995397;28;20534;-75
2021/03/02 18:11:16;;;;;;;9.30;6.60;;;;;;;;;;4995332;28;20217;-74
2021/03/02 18:14:22;;;;;;;12.00;7.20;;;;;;;;;;4994748;28;20186;-75
2021/03/02 18:17:26;;;;;;;10.53;7.20;;;;;;;;;;4972170;28;20186;-74